sensor_id;sensor_type;location;lat;lon;timestamp;P1;durP1;ratioP1;P2;durP2;ratioP2
39924;SDS011;25592;49.986;11.618;2023-06-22T00:01:33;15.43;;;9.48;;
39924;SDS011;25592;49.986;11.618;2023-06-22T00:04:19;12.05;;;8.77;;
39924;SDS011;25592;49.986;11.618;2023-06-22T00:07:05;13.75;;;11.10;;
39924;SDS011;25592;49.986;11.618;2023-06-22T00:09:50;12.98;;;9.68;;
39924;SDS011;25592;49.986;11.618;2023-06-22T00:12:36;14.23;;;11.50;;
39924;SDS011;25592;49.986;11.618;2023-06-22T00:15:21;16.17;;;11.05;;
39924;SDS011;25592;49.986;11.618;2023-06-22T00:18:07;13.23;;;10.35;;
39924;SDS011;25592;49.986;11.618;2023-06-22T00:20:54;14.18;;;10.65;;
39924;SDS011;25592;49.986;11.618;2023-06-22T00:23:42;13.90;;;10.15;;
39924;SDS011;25592;49.986;11.618;2023-06-22T00:26:28;14.63;;;10.07;;
39924;SDS011;25592;49.986;11.618;2023-06-22T00:29:14;14.35;;;10.70;;
39924;SDS011;25592;49.986;11.618;2023-06-22T00:32:00;17.00;;;9.10;;
39924;SDS011;25592;49.986;11.618;2023-06-22T00:34:45;13.93;;;9.13;;
39924;SDS011;25592;49.986;11.618;2023-06-22T00:37:30;14.43;;;9.77;;
39924;SDS011;25592;49.986;11.618;2023-06-22T00:40:16;17.08;;;11.95;;
39924;SDS011;25592;49.986;11.618;2023-06-22T00:43:02;13.50;;;10.07;;
39924;SDS011;25592;49.986;11.618;2023-06-22T00:45:47;13.23;;;9.65;;
39924;SDS011;25592;49.986;11.618;2023-06-22T00:48:33;12.85;;;10.43;;
39924;SDS011;25592;49.986;11.618;2023-06-22T00:51:21;13.05;;;9.95;;
39924;SDS011;25592;49.986;11.618;2023-06-22T00:54:08;11.95;;;9.40;;
39924;SDS011;25592;49.986;11.618;2023-06-22T00:56:55;11.98;;;9.27;;
39924;SDS011;25592;49.986;11.618;2023-06-22T00:59:46;12.02;;;9.00;;
39924;SDS011;25592;49.986;11.618;2023-06-22T01:02:32;12.57;;;9.48;;
39924;SDS011;25592;49.986;11.618;2023-06-22T01:05:19;11.63;;;9.52;;
39924;SDS011;25592;49.986;11.618;2023-06-22T01:11:12;12.38;;;9.13;;
39924;SDS011;25592;49.986;11.618;2023-06-22T01:14:12;12.20;;;8.70;;
39924;SDS011;25592;49.986;11.618;2023-06-22T01:17:05;11.75;;;9.65;;
39924;SDS011;25592;49.986;11.618;2023-06-22T01:19:54;13.45;;;9.32;;
39924;SDS011;25592;49.986;11.618;2023-06-22T01:29:12;11.82;;;8.43;;
39924;SDS011;25592;49.986;11.618;2023-06-22T01:31:59;10.52;;;8.57;;
39924;SDS011;25592;49.986;11.618;2023-06-22T01:34:46;12.63;;;9.55;;
39924;SDS011;25592;49.986;11.618;2023-06-22T01:37:33;12.80;;;8.68;;
39924;SDS011;25592;49.986;11.618;2023-06-22T01:40:20;12.70;;;9.88;;
39924;SDS011;25592;49.986;11.618;2023-06-22T01:43:06;13.13;;;9.23;;
39924;SDS011;25592;49.986;11.618;2023-06-22T01:45:52;15.20;;;9.80;;
39924;SDS011;25592;49.986;11.618;2023-06-22T01:48:39;15.13;;;12.07;;
39924;SDS011;25592;49.986;11.618;2023-06-22T01:51:24;13.20;;;10.52;;
39924;SDS011;25592;49.986;11.618;2023-06-22T01:54:10;15.23;;;10.63;;
39924;SDS011;25592;49.986;11.618;2023-06-22T01:56:55;17.27;;;11.18;;
39924;SDS011;25592;49.986;11.618;2023-06-22T01:59:48;14.40;;;10.70;;
39924;SDS011;25592;49.986;11.618;2023-06-22T02:02:57;13.20;;;10.60;;
39924;SDS011;25592;49.986;11.618;2023-06-22T02:09:03;12.85;;;10.88;;
39924;SDS011;25592;49.986;11.618;2023-06-22T02:11:53;14.45;;;11.00;;
39924;SDS011;25592;49.986;11.618;2023-06-22T02:14:40;14.70;;;11.48;;
39924;SDS011;25592;49.986;11.618;2023-06-22T02:17:26;15.48;;;10.73;;
39924;SDS011;25592;49.986;11.618;2023-06-22T02:20:12;14.20;;;11.18;;
39924;SDS011;25592;49.986;11.618;2023-06-22T02:22:59;14.55;;;10.90;;
39924;SDS011;25592;49.986;11.618;2023-06-22T02:25:44;15.18;;;11.07;;
39924;SDS011;25592;49.986;11.618;2023-06-22T02:28:29;15.80;;;10.68;;
39924;SDS011;25592;49.986;11.618;2023-06-22T02:31:15;15.38;;;10.38;;
39924;SDS011;25592;49.986;11.618;2023-06-22T02:34:01;14.77;;;11.75;;
39924;SDS011;25592;49.986;11.618;2023-06-22T02:36:47;12.13;;;10.43;;
39924;SDS011;25592;49.986;11.618;2023-06-22T02:39:36;14.93;;;10.73;;
39924;SDS011;25592;49.986;11.618;2023-06-22T02:42:21;17.52;;;11.98;;
39924;SDS011;25592;49.986;11.618;2023-06-22T02:45:07;19.42;;;11.52;;
39924;SDS011;25592;49.986;11.618;2023-06-22T02:47:52;19.05;;;12.40;;
39924;SDS011;25592;49.986;11.618;2023-06-22T02:50:38;13.35;;;9.93;;
39924;SDS011;25592;49.986;11.618;2023-06-22T02:53:23;13.82;;;10.80;;
39924;SDS011;25592;49.986;11.618;2023-06-22T02:56:09;13.68;;;10.23;;
39924;SDS011;25592;49.986;11.618;2023-06-22T02:58:54;14.85;;;10.35;;
39924;SDS011;25592;49.986;11.618;2023-06-22T03:01:45;14.43;;;10.18;;
39924;SDS011;25592;49.986;11.618;2023-06-22T03:04:30;12.45;;;9.32;;
39924;SDS011;25592;49.986;11.618;2023-06-22T03:07:16;12.65;;;9.63;;
39924;SDS011;25592;49.986;11.618;2023-06-22T03:10:02;15.85;;;10.23;;
39924;SDS011;25592;49.986;11.618;2023-06-22T03:12:47;16.65;;;9.80;;
39924;SDS011;25592;49.986;11.618;2023-06-22T03:15:33;11.35;;;8.63;;
39924;SDS011;25592;49.986;11.618;2023-06-22T03:18:18;12.32;;;8.98;;
39924;SDS011;25592;49.986;11.618;2023-06-22T03:21:04;12.13;;;9.77;;
39924;SDS011;25592;49.986;11.618;2023-06-22T03:23:50;15.15;;;10.38;;
39924;SDS011;25592;49.986;11.618;2023-06-22T03:26:35;14.90;;;10.73;;
39924;SDS011;25592;49.986;11.618;2023-06-22T03:29:20;15.52;;;11.13;;
39924;SDS011;25592;49.986;11.618;2023-06-22T03:32:06;14.85;;;10.85;;
39924;SDS011;25592;49.986;11.618;2023-06-22T03:34:52;16.70;;;11.77;;
39924;SDS011;25592;49.986;11.618;2023-06-22T03:37:37;15.23;;;10.23;;
39924;SDS011;25592;49.986;11.618;2023-06-22T03:40:23;13.20;;;11.55;;
39924;SDS011;25592;49.986;11.618;2023-06-22T03:43:08;19.73;;;12.35;;
39924;SDS011;25592;49.986;11.618;2023-06-22T03:45:53;16.10;;;12.82;;
39924;SDS011;25592;49.986;11.618;2023-06-22T03:48:39;16.40;;;12.45;;
39924;SDS011;25592;49.986;11.618;2023-06-22T03:51:24;14.85;;;12.35;;
39924;SDS011;25592;49.986;11.618;2023-06-22T03:54:10;20.48;;;12.70;;
39924;SDS011;25592;49.986;11.618;2023-06-22T03:56:56;17.52;;;13.07;;
39924;SDS011;25592;49.986;11.618;2023-06-22T03:59:42;17.45;;;13.07;;
39924;SDS011;25592;49.986;11.618;2023-06-22T04:02:27;14.63;;;12.63;;
39924;SDS011;25592;49.986;11.618;2023-06-22T04:05:13;15.77;;;12.57;;
39924;SDS011;25592;49.986;11.618;2023-06-22T04:07:58;16.20;;;12.75;;
39924;SDS011;25592;49.986;11.618;2023-06-22T04:10:44;17.23;;;12.32;;
39924;SDS011;25592;49.986;11.618;2023-06-22T04:13:29;24.10;;;14.02;;
39924;SDS011;25592;49.986;11.618;2023-06-22T04:16:15;23.17;;;13.68;;
39924;SDS011;25592;49.986;11.618;2023-06-22T04:19:00;16.55;;;13.23;;
39924;SDS011;25592;49.986;11.618;2023-06-22T04:21:45;17.38;;;12.77;;
39924;SDS011;25592;49.986;11.618;2023-06-22T04:24:33;19.70;;;12.85;;
39924;SDS011;25592;49.986;11.618;2023-06-22T04:27:18;20.08;;;12.05;;
39924;SDS011;25592;49.986;11.618;2023-06-22T04:30:05;14.05;;;11.65;;
39924;SDS011;25592;49.986;11.618;2023-06-22T04:32:52;15.85;;;10.90;;
39924;SDS011;25592;49.986;11.618;2023-06-22T04:35:46;18.15;;;12.32;;
39924;SDS011;25592;49.986;11.618;2023-06-22T04:38:31;16.15;;;11.68;;
39924;SDS011;25592;49.986;11.618;2023-06-22T04:41:19;16.58;;;11.45;;
39924;SDS011;25592;49.986;11.618;2023-06-22T04:44:09;17.40;;;11.57;;
39924;SDS011;25592;49.986;11.618;2023-06-22T04:46:58;12.80;;;10.52;;
39924;SDS011;25592;49.986;11.618;2023-06-22T04:49:52;18.13;;;10.38;;
39924;SDS011;25592;49.986;11.618;2023-06-22T04:52:38;13.57;;;9.88;;
39924;SDS011;25592;49.986;11.618;2023-06-22T04:55:23;11.60;;;8.85;;
39924;SDS011;25592;49.986;11.618;2023-06-22T04:58:10;10.65;;;8.02;;
39924;SDS011;25592;49.986;11.618;2023-06-22T05:00:57;10.82;;;7.95;;
39924;SDS011;25592;49.986;11.618;2023-06-22T05:03:42;10.80;;;7.95;;
39924;SDS011;25592;49.986;11.618;2023-06-22T05:06:29;10.50;;;6.93;;
39924;SDS011;25592;49.986;11.618;2023-06-22T05:09:14;9.05;;;7.18;;
39924;SDS011;25592;49.986;11.618;2023-06-22T05:12:00;9.20;;;6.50;;
39924;SDS011;25592;49.986;11.618;2023-06-22T05:14:47;8.77;;;6.80;;
39924;SDS011;25592;49.986;11.618;2023-06-22T05:17:32;9.35;;;6.60;;
39924;SDS011;25592;49.986;11.618;2023-06-22T05:20:18;9.73;;;6.25;;
39924;SDS011;25592;49.986;11.618;2023-06-22T05:23:03;11.48;;;6.45;;
39924;SDS011;25592;49.986;11.618;2023-06-22T05:25:49;10.07;;;6.72;;
39924;SDS011;25592;49.986;11.618;2023-06-22T05:28:34;9.60;;;6.25;;
39924;SDS011;25592;49.986;11.618;2023-06-22T05:31:20;7.90;;;5.65;;
39924;SDS011;25592;49.986;11.618;2023-06-22T05:34:05;7.28;;;5.65;;
39924;SDS011;25592;49.986;11.618;2023-06-22T05:36:51;8.50;;;5.72;;
39924;SDS011;25592;49.986;11.618;2023-06-22T05:39:36;10.98;;;5.47;;
39924;SDS011;25592;49.986;11.618;2023-06-22T05:42:24;9.50;;;5.72;;
39924;SDS011;25592;49.986;11.618;2023-06-22T05:45:10;13.65;;;6.45;;
39924;SDS011;25592;49.986;11.618;2023-06-22T05:47:56;9.27;;;6.25;;
39924;SDS011;25592;49.986;11.618;2023-06-22T05:50:41;7.70;;;5.90;;
39924;SDS011;25592;49.986;11.618;2023-06-22T05:53:27;10.07;;;6.45;;
39924;SDS011;25592;49.986;11.618;2023-06-22T05:56:12;8.35;;;6.10;;
39924;SDS011;25592;49.986;11.618;2023-06-22T05:58:58;10.30;;;6.30;;
39924;SDS011;25592;49.986;11.618;2023-06-22T06:01:43;9.52;;;5.95;;
39924;SDS011;25592;49.986;11.618;2023-06-22T06:04:29;7.70;;;5.72;;
39924;SDS011;25592;49.986;11.618;2023-06-22T06:07:15;7.57;;;5.93;;
39924;SDS011;25592;49.986;11.618;2023-06-22T06:10:00;8.43;;;5.50;;
39924;SDS011;25592;49.986;11.618;2023-06-22T06:12:46;9.65;;;6.32;;
39924;SDS011;25592;49.986;11.618;2023-06-22T06:15:31;10.02;;;5.68;;
39924;SDS011;25592;49.986;11.618;2023-06-22T06:18:17;9.48;;;6.63;;
39924;SDS011;25592;49.986;11.618;2023-06-22T06:21:02;10.40;;;5.80;;
39924;SDS011;25592;49.986;11.618;2023-06-22T06:23:48;7.68;;;5.78;;
39924;SDS011;25592;49.986;11.618;2023-06-22T06:26:33;7.80;;;5.38;;
39924;SDS011;25592;49.986;11.618;2023-06-22T06:29:19;8.95;;;5.53;;
39924;SDS011;25592;49.986;11.618;2023-06-22T06:32:04;10.98;;;5.65;;
39924;SDS011;25592;49.986;11.618;2023-06-22T06:34:50;8.10;;;6.15;;
39924;SDS011;25592;49.986;11.618;2023-06-22T06:37:36;7.78;;;5.68;;
39924;SDS011;25592;49.986;11.618;2023-06-22T06:40:23;7.10;;;5.35;;
39924;SDS011;25592;49.986;11.618;2023-06-22T06:43:08;8.88;;;6.15;;
39924;SDS011;25592;49.986;11.618;2023-06-22T06:45:53;8.30;;;5.80;;
39924;SDS011;25592;49.986;11.618;2023-06-22T06:48:39;8.82;;;5.68;;
39924;SDS011;25592;49.986;11.618;2023-06-22T06:51:24;7.63;;;5.35;;
39924;SDS011;25592;49.986;11.618;2023-06-22T06:54:10;7.78;;;5.80;;
39924;SDS011;25592;49.986;11.618;2023-06-22T06:56:55;8.63;;;6.18;;
39924;SDS011;25592;49.986;11.618;2023-06-22T06:59:41;8.05;;;5.40;;
39924;SDS011;25592;49.986;11.618;2023-06-22T07:02:26;8.32;;;5.30;;
39924;SDS011;25592;49.986;11.618;2023-06-22T07:05:14;8.55;;;5.97;;
39924;SDS011;25592;49.986;11.618;2023-06-22T07:07:59;9.15;;;5.47;;
39924;SDS011;25592;49.986;11.618;2023-06-22T07:10:45;8.02;;;5.72;;
39924;SDS011;25592;49.986;11.618;2023-06-22T07:13:30;7.82;;;5.63;;
39924;SDS011;25592;49.986;11.618;2023-06-22T07:16:16;9.23;;;6.07;;
39924;SDS011;25592;49.986;11.618;2023-06-22T07:19:01;8.02;;;5.72;;
39924;SDS011;25592;49.986;11.618;2023-06-22T07:21:47;6.88;;;5.22;;
39924;SDS011;25592;49.986;11.618;2023-06-22T07:24:32;9.55;;;6.50;;
39924;SDS011;25592;49.986;11.618;2023-06-22T07:27:17;7.85;;;5.90;;
39924;SDS011;25592;49.986;11.618;2023-06-22T07:30:06;8.35;;;6.18;;
39924;SDS011;25592;49.986;11.618;2023-06-22T07:32:52;8.13;;;5.43;;
39924;SDS011;25592;49.986;11.618;2023-06-22T07:35:37;7.82;;;5.68;;
39924;SDS011;25592;49.986;11.618;2023-06-22T07:38:23;9.27;;;5.75;;
39924;SDS011;25592;49.986;11.618;2023-06-22T07:41:08;14.48;;;5.45;;
39924;SDS011;25592;49.986;11.618;2023-06-22T07:43:54;8.90;;;5.13;;
39924;SDS011;25592;49.986;11.618;2023-06-22T07:46:39;7.22;;;4.95;;
39924;SDS011;25592;49.986;11.618;2023-06-22T07:49:25;9.40;;;5.60;;
39924;SDS011;25592;49.986;11.618;2023-06-22T07:52:10;8.20;;;5.30;;
39924;SDS011;25592;49.986;11.618;2023-06-22T07:54:56;8.13;;;5.20;;
39924;SDS011;25592;49.986;11.618;2023-06-22T07:57:41;8.35;;;5.55;;
39924;SDS011;25592;49.986;11.618;2023-06-22T08:00:27;11.45;;;5.80;;
39924;SDS011;25592;49.986;11.618;2023-06-22T08:03:12;7.97;;;4.97;;
39924;SDS011;25592;49.986;11.618;2023-06-22T08:05:58;10.82;;;6.00;;
39924;SDS011;25592;49.986;11.618;2023-06-22T08:08:44;7.25;;;5.20;;
39924;SDS011;25592;49.986;11.618;2023-06-22T08:11:32;7.68;;;5.28;;
39924;SDS011;25592;49.986;11.618;2023-06-22T08:14:18;7.65;;;5.28;;
39924;SDS011;25592;49.986;11.618;2023-06-22T08:17:04;6.72;;;5.05;;
39924;SDS011;25592;49.986;11.618;2023-06-22T08:19:50;11.55;;;5.40;;
39924;SDS011;25592;49.986;11.618;2023-06-22T08:22:35;7.38;;;5.53;;
39924;SDS011;25592;49.986;11.618;2023-06-22T08:25:23;7.35;;;5.63;;
39924;SDS011;25592;49.986;11.618;2023-06-22T08:28:08;7.35;;;5.53;;
39924;SDS011;25592;49.986;11.618;2023-06-22T08:30:54;16.92;;;5.80;;
39924;SDS011;25592;49.986;11.618;2023-06-22T08:33:40;7.45;;;5.13;;
39924;SDS011;25592;49.986;11.618;2023-06-22T08:36:33;8.63;;;5.47;;
39924;SDS011;25592;49.986;11.618;2023-06-22T08:39:22;10.57;;;5.97;;
39924;SDS011;25592;49.986;11.618;2023-06-22T08:42:07;9.00;;;5.22;;
39924;SDS011;25592;49.986;11.618;2023-06-22T08:44:53;9.95;;;5.90;;
39924;SDS011;25592;49.986;11.618;2023-06-22T08:47:39;8.70;;;5.45;;
39924;SDS011;25592;49.986;11.618;2023-06-22T08:50:26;7.32;;;5.07;;
39924;SDS011;25592;49.986;11.618;2023-06-22T08:53:12;6.97;;;5.10;;
39924;SDS011;25592;49.986;11.618;2023-06-22T08:55:57;8.30;;;5.20;;
39924;SDS011;25592;49.986;11.618;2023-06-22T08:58:43;9.95;;;5.13;;
39924;SDS011;25592;49.986;11.618;2023-06-22T09:01:28;7.47;;;5.30;;
39924;SDS011;25592;49.986;11.618;2023-06-22T09:04:13;9.90;;;5.57;;
39924;SDS011;25592;49.986;11.618;2023-06-22T09:07:00;8.32;;;5.25;;
39924;SDS011;25592;49.986;11.618;2023-06-22T09:09:46;7.03;;;4.80;;
39924;SDS011;25592;49.986;11.618;2023-06-22T09:12:31;10.75;;;5.40;;
39924;SDS011;25592;49.986;11.618;2023-06-22T09:15:17;8.00;;;5.43;;
39924;SDS011;25592;49.986;11.618;2023-06-22T09:18:03;6.57;;;5.07;;
39924;SDS011;25592;49.986;11.618;2023-06-22T09:20:48;6.65;;;5.15;;
39924;SDS011;25592;49.986;11.618;2023-06-22T09:23:34;7.28;;;5.10;;
39924;SDS011;25592;49.986;11.618;2023-06-22T09:26:19;8.45;;;5.60;;
39924;SDS011;25592;49.986;11.618;2023-06-22T09:29:05;9.65;;;5.70;;
39924;SDS011;25592;49.986;11.618;2023-06-22T09:31:50;8.60;;;5.32;;
39924;SDS011;25592;49.986;11.618;2023-06-22T09:34:38;8.43;;;5.88;;
39924;SDS011;25592;49.986;11.618;2023-06-22T09:37:23;8.10;;;5.25;;
39924;SDS011;25592;49.986;11.618;2023-06-22T09:40:09;11.43;;;5.30;;
39924;SDS011;25592;49.986;11.618;2023-06-22T09:42:56;8.77;;;5.60;;
39924;SDS011;25592;49.986;11.618;2023-06-22T09:45:41;8.25;;;5.53;;
39924;SDS011;25592;49.986;11.618;2023-06-22T09:48:26;9.80;;;5.22;;
39924;SDS011;25592;49.986;11.618;2023-06-22T09:51:12;8.65;;;4.72;;
39924;SDS011;25592;49.986;11.618;2023-06-22T09:54:01;7.30;;;5.40;;
39924;SDS011;25592;49.986;11.618;2023-06-22T09:56:46;6.85;;;5.20;;
39924;SDS011;25592;49.986;11.618;2023-06-22T09:59:32;6.47;;;5.20;;
39924;SDS011;25592;49.986;11.618;2023-06-22T10:02:17;8.38;;;5.07;;
39924;SDS011;25592;49.986;11.618;2023-06-22T10:05:03;7.72;;;5.78;;
39924;SDS011;25592;49.986;11.618;2023-06-22T10:07:49;7.38;;;5.80;;
39924;SDS011;25592;49.986;11.618;2023-06-22T10:10:35;6.78;;;5.15;;
39924;SDS011;25592;49.986;11.618;2023-06-22T10:13:20;6.32;;;4.75;;
39924;SDS011;25592;49.986;11.618;2023-06-22T10:16:05;7.32;;;5.00;;
39924;SDS011;25592;49.986;11.618;2023-06-22T10:18:51;6.95;;;4.50;;
39924;SDS011;25592;49.986;11.618;2023-06-22T10:21:37;6.97;;;5.03;;
39924;SDS011;25592;49.986;11.618;2023-06-22T10:24:22;6.40;;;5.10;;
39924;SDS011;25592;49.986;11.618;2023-06-22T10:27:08;8.27;;;5.35;;
39924;SDS011;25592;49.986;11.618;2023-06-22T10:29:53;7.72;;;4.85;;
39924;SDS011;25592;49.986;11.618;2023-06-22T10:32:39;8.32;;;5.03;;
39924;SDS011;25592;49.986;11.618;2023-06-22T10:35:24;8.30;;;5.15;;
39924;SDS011;25592;49.986;11.618;2023-06-22T10:38:10;6.90;;;4.75;;
39924;SDS011;25592;49.986;11.618;2023-06-22T10:40:55;8.57;;;5.20;;
39924;SDS011;25592;49.986;11.618;2023-06-22T10:43:43;6.43;;;4.90;;
39924;SDS011;25592;49.986;11.618;2023-06-22T10:46:28;7.05;;;4.40;;
39924;SDS011;25592;49.986;11.618;2023-06-22T10:49:13;8.63;;;4.45;;
39924;SDS011;25592;49.986;11.618;2023-06-22T10:51:59;6.70;;;4.68;;
39924;SDS011;25592;49.986;11.618;2023-06-22T10:54:44;7.22;;;4.93;;
39924;SDS011;25592;49.986;11.618;2023-06-22T10:57:29;7.18;;;4.55;;
39924;SDS011;25592;49.986;11.618;2023-06-22T11:00:15;6.38;;;4.40;;
39924;SDS011;25592;49.986;11.618;2023-06-22T11:03:01;7.78;;;5.40;;
39924;SDS011;25592;49.986;11.618;2023-06-22T11:05:47;7.20;;;4.22;;
39924;SDS011;25592;49.986;11.618;2023-06-22T11:08:32;6.35;;;4.70;;
39924;SDS011;25592;49.986;11.618;2023-06-22T11:11:18;5.95;;;3.83;;
39924;SDS011;25592;49.986;11.618;2023-06-22T11:14:03;5.53;;;4.15;;
39924;SDS011;25592;49.986;11.618;2023-06-22T11:16:48;10.52;;;4.60;;
39924;SDS011;25592;49.986;11.618;2023-06-22T11:19:34;8.82;;;4.10;;
39924;SDS011;25592;49.986;11.618;2023-06-22T11:22:19;10.23;;;4.82;;
39924;SDS011;25592;49.986;11.618;2023-06-22T11:25:05;6.68;;;4.85;;
39924;SDS011;25592;49.986;11.618;2023-06-22T11:27:51;7.10;;;4.60;;
39924;SDS011;25592;49.986;11.618;2023-06-22T11:30:40;9.95;;;4.88;;
39924;SDS011;25592;49.986;11.618;2023-06-22T11:33:25;11.00;;;4.93;;
39924;SDS011;25592;49.986;11.618;2023-06-22T11:36:10;7.15;;;4.10;;
39924;SDS011;25592;49.986;11.618;2023-06-22T11:38:56;6.80;;;4.00;;
39924;SDS011;25592;49.986;11.618;2023-06-22T11:41:41;7.15;;;3.97;;
39924;SDS011;25592;49.986;11.618;2023-06-22T11:44:27;7.78;;;4.53;;
39924;SDS011;25592;49.986;11.618;2023-06-22T11:47:12;10.18;;;4.32;;
39924;SDS011;25592;49.986;11.618;2023-06-22T11:49:58;10.52;;;4.00;;
39924;SDS011;25592;49.986;11.618;2023-06-22T11:52:43;9.57;;;4.38;;
39924;SDS011;25592;49.986;11.618;2023-06-22T11:55:29;10.55;;;4.50;;
39924;SDS011;25592;49.986;11.618;2023-06-22T11:58:14;8.20;;;4.20;;
39924;SDS011;25592;49.986;11.618;2023-06-22T12:00:59;7.47;;;4.20;;
39924;SDS011;25592;49.986;11.618;2023-06-22T12:03:45;8.13;;;4.78;;
39924;SDS011;25592;49.986;11.618;2023-06-22T12:06:31;8.70;;;4.18;;
39924;SDS011;25592;49.986;11.618;2023-06-22T12:09:17;8.85;;;5.20;;
39924;SDS011;25592;49.986;11.618;2023-06-22T12:12:03;9.27;;;4.25;;
39924;SDS011;25592;49.986;11.618;2023-06-22T12:14:52;9.90;;;4.20;;
39924;SDS011;25592;49.986;11.618;2023-06-22T12:17:37;5.78;;;4.47;;
39924;SDS011;25592;49.986;11.618;2023-06-22T12:20:23;7.97;;;4.07;;
39924;SDS011;25592;49.986;11.618;2023-06-22T12:23:10;6.85;;;4.03;;
39924;SDS011;25592;49.986;11.618;2023-06-22T12:25:55;7.90;;;4.75;;
39924;SDS011;25592;49.986;11.618;2023-06-22T12:28:41;8.80;;;5.10;;
39924;SDS011;25592;49.986;11.618;2023-06-22T12:31:26;7.55;;;4.45;;
39924;SDS011;25592;49.986;11.618;2023-06-22T12:34:12;8.20;;;4.13;;
39924;SDS011;25592;49.986;11.618;2023-06-22T12:36:58;6.28;;;4.30;;
39924;SDS011;25592;49.986;11.618;2023-06-22T12:39:43;10.15;;;5.00;;
39924;SDS011;25592;49.986;11.618;2023-06-22T12:42:29;8.07;;;4.82;;
39924;SDS011;25592;49.986;11.618;2023-06-22T12:45:14;7.47;;;4.40;;
39924;SDS011;25592;49.986;11.618;2023-06-22T12:48:00;8.38;;;4.07;;
39924;SDS011;25592;49.986;11.618;2023-06-22T12:50:46;8.75;;;3.83;;
39924;SDS011;25592;49.986;11.618;2023-06-22T12:53:32;7.28;;;4.97;;
39924;SDS011;25592;49.986;11.618;2023-06-22T12:56:17;6.75;;;3.83;;
39924;SDS011;25592;49.986;11.618;2023-06-22T12:59:03;9.57;;;4.45;;
39924;SDS011;25592;49.986;11.618;2023-06-22T13:01:49;8.30;;;4.00;;
39924;SDS011;25592;49.986;11.618;2023-06-22T13:04:34;6.72;;;4.05;;
39924;SDS011;25592;49.986;11.618;2023-06-22T13:07:19;9.00;;;5.13;;
39924;SDS011;25592;49.986;11.618;2023-06-22T13:10:08;10.27;;;5.07;;
39924;SDS011;25592;49.986;11.618;2023-06-22T13:12:53;6.93;;;4.22;;
39924;SDS011;25592;49.986;11.618;2023-06-22T13:15:44;8.05;;;4.55;;
39924;SDS011;25592;49.986;11.618;2023-06-22T13:18:30;9.20;;;4.68;;
39924;SDS011;25592;49.986;11.618;2023-06-22T13:21:15;8.93;;;4.22;;
39924;SDS011;25592;49.986;11.618;2023-06-22T13:24:01;7.28;;;4.40;;
39924;SDS011;25592;49.986;11.618;2023-06-22T13:26:46;9.38;;;4.70;;
39924;SDS011;25592;49.986;11.618;2023-06-22T13:29:31;8.88;;;4.22;;
39924;SDS011;25592;49.986;11.618;2023-06-22T13:32:17;9.07;;;4.75;;
39924;SDS011;25592;49.986;11.618;2023-06-22T13:35:02;8.68;;;4.07;;
39924;SDS011;25592;49.986;11.618;2023-06-22T13:37:48;11.77;;;5.22;;
39924;SDS011;25592;49.986;11.618;2023-06-22T13:40:33;11.80;;;4.78;;
39924;SDS011;25592;49.986;11.618;2023-06-22T13:43:19;7.20;;;4.30;;
39924;SDS011;25592;49.986;11.618;2023-06-22T13:46:04;10.73;;;4.45;;
39924;SDS011;25592;49.986;11.618;2023-06-22T13:48:49;11.57;;;4.57;;
39924;SDS011;25592;49.986;11.618;2023-06-22T13:51:35;9.43;;;4.43;;
39924;SDS011;25592;49.986;11.618;2023-06-22T13:54:20;9.65;;;4.03;;
39924;SDS011;25592;49.986;11.618;2023-06-22T13:57:14;16.00;;;5.43;;
39924;SDS011;25592;49.986;11.618;2023-06-22T13:59:59;8.73;;;4.18;;
39924;SDS011;25592;49.986;11.618;2023-06-22T14:02:45;12.25;;;4.53;;
39924;SDS011;25592;49.986;11.618;2023-06-22T14:05:30;12.43;;;4.40;;
39924;SDS011;25592;49.986;11.618;2023-06-22T14:08:16;10.27;;;4.05;;
39924;SDS011;25592;49.986;11.618;2023-06-22T14:11:21;8.75;;;4.60;;
39924;SDS011;25592;49.986;11.618;2023-06-22T14:14:07;11.98;;;5.70;;
39924;SDS011;25592;49.986;11.618;2023-06-22T14:16:52;10.13;;;4.43;;
39924;SDS011;25592;49.986;11.618;2023-06-22T14:19:37;10.00;;;4.65;;
39924;SDS011;25592;49.986;11.618;2023-06-22T14:22:23;8.88;;;4.50;;
39924;SDS011;25592;49.986;11.618;2023-06-22T14:25:08;8.65;;;4.20;;
39924;SDS011;25592;49.986;11.618;2023-06-22T14:27:54;7.75;;;4.55;;
39924;SDS011;25592;49.986;11.618;2023-06-22T14:30:39;9.75;;;4.88;;
39924;SDS011;25592;49.986;11.618;2023-06-22T14:33:25;7.20;;;4.45;;
39924;SDS011;25592;49.986;11.618;2023-06-22T14:36:10;10.05;;;4.65;;
39924;SDS011;25592;49.986;11.618;2023-06-22T14:38:56;11.05;;;4.80;;
39924;SDS011;25592;49.986;11.618;2023-06-22T14:41:41;10.13;;;4.70;;
39924;SDS011;25592;49.986;11.618;2023-06-22T14:44:27;10.55;;;4.90;;
39924;SDS011;25592;49.986;11.618;2023-06-22T14:47:13;10.38;;;4.65;;
39924;SDS011;25592;49.986;11.618;2023-06-22T14:50:00;10.48;;;4.85;;
39924;SDS011;25592;49.986;11.618;2023-06-22T14:52:45;8.63;;;5.30;;
39924;SDS011;25592;49.986;11.618;2023-06-22T14:55:30;9.90;;;5.28;;
39924;SDS011;25592;49.986;11.618;2023-06-22T14:58:16;13.68;;;5.07;;
39924;SDS011;25592;49.986;11.618;2023-06-22T15:01:02;8.68;;;4.70;;
39924;SDS011;25592;49.986;11.618;2023-06-22T15:03:48;10.23;;;4.50;;
39924;SDS011;25592;49.986;11.618;2023-06-22T15:06:34;10.98;;;5.65;;
39924;SDS011;25592;49.986;11.618;2023-06-22T15:09:19;11.40;;;4.70;;
39924;SDS011;25592;49.986;11.618;2023-06-22T15:12:05;10.50;;;5.28;;
39924;SDS011;25592;49.986;11.618;2023-06-22T15:14:52;10.95;;;4.95;;
39924;SDS011;25592;49.986;11.618;2023-06-22T15:17:37;14.02;;;4.97;;
39924;SDS011;25592;49.986;11.618;2023-06-22T15:20:23;14.02;;;5.20;;
39924;SDS011;25592;49.986;11.618;2023-06-22T15:23:09;8.63;;;4.60;;
39924;SDS011;25592;49.986;11.618;2023-06-22T15:25:55;8.32;;;4.93;;
39924;SDS011;25592;49.986;11.618;2023-06-22T15:28:41;10.15;;;4.95;;
39924;SDS011;25592;49.986;11.618;2023-06-22T15:31:27;10.80;;;5.10;;
39924;SDS011;25592;49.986;11.618;2023-06-22T15:34:13;10.07;;;5.10;;
39924;SDS011;25592;49.986;11.618;2023-06-22T15:36:59;12.88;;;5.05;;
39924;SDS011;25592;49.986;11.618;2023-06-22T15:39:44;10.75;;;5.13;;
39924;SDS011;25592;49.986;11.618;2023-06-22T15:42:30;9.40;;;5.45;;
39924;SDS011;25592;49.986;11.618;2023-06-22T15:45:15;15.40;;;5.35;;
39924;SDS011;25592;49.986;11.618;2023-06-22T15:48:01;14.25;;;4.65;;
39924;SDS011;25592;49.986;11.618;2023-06-22T15:50:46;15.95;;;4.95;;
39924;SDS011;25592;49.986;11.618;2023-06-22T15:53:32;8.70;;;5.47;;
39924;SDS011;25592;49.986;11.618;2023-06-22T15:56:17;10.63;;;5.03;;
39924;SDS011;25592;49.986;11.618;2023-06-22T15:59:04;10.38;;;5.00;;
39924;SDS011;25592;49.986;11.618;2023-06-22T16:01:50;11.38;;;5.57;;
39924;SDS011;25592;49.986;11.618;2023-06-22T16:04:35;10.55;;;5.43;;
39924;SDS011;25592;49.986;11.618;2023-06-22T16:07:21;9.77;;;5.38;;
39924;SDS011;25592;49.986;11.618;2023-06-22T16:10:06;9.68;;;4.85;;
39924;SDS011;25592;49.986;11.618;2023-06-22T16:12:53;9.10;;;5.22;;
39924;SDS011;25592;49.986;11.618;2023-06-22T16:15:38;11.85;;;5.35;;
39924;SDS011;25592;49.986;11.618;2023-06-22T16:18:23;9.88;;;5.18;;
39924;SDS011;25592;49.986;11.618;2023-06-22T16:21:08;8.38;;;4.88;;
39924;SDS011;25592;49.986;11.618;2023-06-22T16:23:54;13.15;;;5.43;;
39924;SDS011;25592;49.986;11.618;2023-06-22T16:26:40;12.73;;;5.40;;
39924;SDS011;25592;49.986;11.618;2023-06-22T16:29:26;8.85;;;5.13;;